Alonso Valderrama Airport


Codes: MPCE/CTD
Name: Alonso Valderrama Airport
City: Chitre
Country: Panama
Elevation: 33 ft.

Photos at Alonso Valderrama Airport


   Photos courtesy of SpottingLog. You can add your own sightings and photos by signing up for a free trial today.



No photos found.

Weather at Alonso Valderrama Airport


Time (UTC)DescriptionTempratureWindCloud coverageVisibilityPressureHumidity
16-Jun-2024 00:00Moderate Rain27°C7 mph, SW100%10000m1009hPa81%
16-Jun-2024 03:00Light Rain26°C4 mph, SW100%10000m1011hPa83%
16-Jun-2024 06:00Overcast Clouds25°C7 mph, SW100%10000m1010hPa87%
16-Jun-2024 09:00Light Rain25°C2 mph, SW100%10000m1010hPa89%
16-Jun-2024 12:00Light Rain25°C2 mph, SW100%10000m1011hPa91%
16-Jun-2024 15:00Overcast Clouds27°C4 mph, SW92%10000m1012hPa79%
16-Jun-2024 18:00Moderate Rain28°C2 mph, SW95%6629m1011hPa77%
16-Jun-2024 21:00Moderate Rain27°C2 mph, W94%9971m1009hPa84%
17-Jun-2024 00:00Light Rain26°C2 mph, W91%10000m1010hPa89%
17-Jun-2024 03:00Light Rain25°C4 mph, NW100%10000m1011hPa91%
17-Jun-2024 06:00Light Rain25°C4 mph, W100%10000m1011hPa91%
17-Jun-2024 09:00Light Rain25°C4 mph, W100%10000m1009hPa91%
17-Jun-2024 12:00Overcast Clouds25°C4 mph, W100%10000m1010hPa90%
17-Jun-2024 15:00Overcast Clouds27°C2 mph, SW99%10000m1011hPa81%
17-Jun-2024 18:00Overcast Clouds29°C4 mph, NE97%10000m1009hPa71%
17-Jun-2024 21:00Light Rain28°C9 mph, E98%10000m1007hPa79%
18-Jun-2024 00:00Light Rain27°C4 mph, E99%9951m1009hPa83%
18-Jun-2024 03:00Light Rain26°C4 mph, N100%10000m1011hPa86%
18-Jun-2024 06:00Overcast Clouds26°C4 mph, N100%10000m1010hPa89%
18-Jun-2024 09:00Light Rain26°C4 mph, N100%10000m1009hPa90%
18-Jun-2024 12:00Light Rain26°C7 mph, N100%10000m1009hPa88%
18-Jun-2024 15:00Light Rain28°C7 mph, NE94%10000m1011hPa76%
18-Jun-2024 18:00Moderate Rain28°C4 mph, E95%8292m1009hPa75%
18-Jun-2024 21:00Light Rain26°C9 mph, S100%10000m1007hPa85%
19-Jun-2024 00:00Light Rain25°C4 mph, W100%10000m1008hPa86%
19-Jun-2024 03:00Light Rain25°C2 mph, NE100%10000m1010hPa87%
19-Jun-2024 06:00Light Rain25°C0 mph, W100%10000m1009hPa89%
19-Jun-2024 09:00Light Rain24°C7 mph, W100%10000m1008hPa94%
19-Jun-2024 12:00Light Rain25°C2 mph, W100%10000m1009hPa89%
19-Jun-2024 15:00Light Rain27°C2 mph, NW100%10000m1011hPa77%
19-Jun-2024 18:00Moderate Rain28°C2 mph, NE100%7288m1009hPa75%
19-Jun-2024 21:00Moderate Rain25°C2 mph, N100%5248m1007hPa89%
20-Jun-2024 00:00Heavy Intensity Rain24°C7 mph, W100%3601m1008hPa96%
20-Jun-2024 03:00Heavy Intensity Rain24°C7 mph, W100%9750m1010hPa96%
20-Jun-2024 06:00Light Rain24°C7 mph, W100%10000m1009hPa93%
20-Jun-2024 09:00Overcast Clouds24°C9 mph, W100%10000m1007hPa91%
20-Jun-2024 12:00Overcast Clouds24°C4 mph, SW100%10000m1009hPa91%
20-Jun-2024 15:00Overcast Clouds27°C4 mph, SW100%10000m1010hPa78%
20-Jun-2024 18:00Light Rain27°C7 mph, SW100%10000m1009hPa76%
20-Jun-2024 21:00Moderate Rain26°C9 mph, SW99%7416m1008hPa83%